HEMA 230700Z 33018KT CAVOK 32/15 Q1010 NOSIG
From batch tds/metars/production/2022/9/23/h07_m55_metars.cache.csv.gz
Observed at (9 days ago)
Identifier HEMA
talk